sensor_id;sensor_type;location;lat;lon;timestamp;temperature;humidity
21348;DHT22;66030;53.582;9.746;2024-01-25T00:01:37;20.30;60.00
21348;DHT22;66030;53.582;9.746;2024-01-25T00:04:06;20.30;59.90
21348;DHT22;66030;53.582;9.746;2024-01-25T00:06:35;20.30;59.90
21348;DHT22;66030;53.582;9.746;2024-01-25T00:09:03;20.30;59.80
21348;DHT22;66030;53.582;9.746;2024-01-25T00:11:34;20.20;59.70
21348;DHT22;66030;53.582;9.746;2024-01-25T00:14:02;20.20;60.10
21348;DHT22;66030;53.582;9.746;2024-01-25T00:16:30;20.20;60.00
21348;DHT22;66030;53.582;9.746;2024-01-25T00:18:58;20.20;59.80
21348;DHT22;66030;53.582;9.746;2024-01-25T00:21:26;20.20;59.70
21348;DHT22;66030;53.582;9.746;2024-01-25T00:23:55;20.20;59.80
21348;DHT22;66030;53.582;9.746;2024-01-25T00:26:23;20.20;59.70
21348;DHT22;66030;53.582;9.746;2024-01-25T00:28:51;20.10;59.90
21348;DHT22;66030;53.582;9.746;2024-01-25T00:31:19;20.10;59.90
21348;DHT22;66030;53.582;9.746;2024-01-25T00:33:47;20.10;59.80
21348;DHT22;66030;53.582;9.746;2024-01-25T00:36:16;20.00;60.00
21348;DHT22;66030;53.582;9.746;2024-01-25T00:38:45;20.10;60.00
21348;DHT22;66030;53.582;9.746;2024-01-25T00:41:17;20.00;59.90
21348;DHT22;66030;53.582;9.746;2024-01-25T00:43:46;20.00;59.90
21348;DHT22;66030;53.582;9.746;2024-01-25T00:46:15;20.00;60.00
21348;DHT22;66030;53.582;9.746;2024-01-25T00:48:44;20.00;59.80
21348;DHT22;66030;53.582;9.746;2024-01-25T00:51:15;20.00;60.00
21348;DHT22;66030;53.582;9.746;2024-01-25T00:53:43;20.00;59.90
21348;DHT22;66030;53.582;9.746;2024-01-25T00:56:14;19.90;60.00
21348;DHT22;66030;53.582;9.746;2024-01-25T00:58:42;19.90;60.00
21348;DHT22;66030;53.582;9.746;2024-01-25T01:01:11;19.90;60.00
21348;DHT22;66030;53.582;9.746;2024-01-25T01:03:38;19.90;60.00
21348;DHT22;66030;53.582;9.746;2024-01-25T01:06:08;19.90;59.90
21348;DHT22;66030;53.582;9.746;2024-01-25T01:08:36;19.90;59.90
21348;DHT22;66030;53.582;9.746;2024-01-25T01:11:04;19.90;60.10
21348;DHT22;66030;53.582;9.746;2024-01-25T01:13:33;19.80;59.90
21348;DHT22;66030;53.582;9.746;2024-01-25T01:16:01;19.80;59.90
21348;DHT22;66030;53.582;9.746;2024-01-25T01:18:29;19.80;59.80
21348;DHT22;66030;53.582;9.746;2024-01-25T01:20:58;19.80;59.80
21348;DHT22;66030;53.582;9.746;2024-01-25T01:23:26;19.80;59.80
21348;DHT22;66030;53.582;9.746;2024-01-25T01:25:54;19.80;59.80
21348;DHT22;66030;53.582;9.746;2024-01-25T01:28:22;19.70;59.90
21348;DHT22;66030;53.582;9.746;2024-01-25T01:30:51;19.70;59.90
21348;DHT22;66030;53.582;9.746;2024-01-25T01:33:19;19.70;60.00
21348;DHT22;66030;53.582;9.746;2024-01-25T01:35:47;19.70;60.00
21348;DHT22;66030;53.582;9.746;2024-01-25T01:38:15;19.70;60.00
21348;DHT22;66030;53.582;9.746;2024-01-25T01:40:44;19.60;59.80
21348;DHT22;66030;53.582;9.746;2024-01-25T01:43:18;19.60;60.00
21348;DHT22;66030;53.582;9.746;2024-01-25T01:45:46;19.60;60.10
21348;DHT22;66030;53.582;9.746;2024-01-25T01:48:15;19.60;60.10
21348;DHT22;66030;53.582;9.746;2024-01-25T01:50:44;19.60;60.10
21348;DHT22;66030;53.582;9.746;2024-01-25T01:53:12;19.60;60.20
21348;DHT22;66030;53.582;9.746;2024-01-25T01:55:40;19.60;60.10
21348;DHT22;66030;53.582;9.746;2024-01-25T01:58:09;19.60;60.00
21348;DHT22;66030;53.582;9.746;2024-01-25T02:00:37;19.50;60.20
21348;DHT22;66030;53.582;9.746;2024-01-25T02:03:06;19.50;60.20
21348;DHT22;66030;53.582;9.746;2024-01-25T02:05:36;19.50;60.20
21348;DHT22;66030;53.582;9.746;2024-01-25T02:08:05;19.50;60.20
21348;DHT22;66030;53.582;9.746;2024-01-25T02:10:32;19.50;60.10
21348;DHT22;66030;53.582;9.746;2024-01-25T02:13:00;19.50;60.20
21348;DHT22;66030;53.582;9.746;2024-01-25T02:15:28;19.50;59.80
21348;DHT22;66030;53.582;9.746;2024-01-25T02:17:56;19.40;60.10
21348;DHT22;66030;53.582;9.746;2024-01-25T02:20:24;19.40;60.30
21348;DHT22;66030;53.582;9.746;2024-01-25T02:22:54;19.40;60.30
21348;DHT22;66030;53.582;9.746;2024-01-25T02:25:22;19.40;60.30
21348;DHT22;66030;53.582;9.746;2024-01-25T02:27:50;19.40;60.30
21348;DHT22;66030;53.582;9.746;2024-01-25T02:30:18;19.40;60.30
21348;DHT22;66030;53.582;9.746;2024-01-25T02:32:46;19.40;60.60
21348;DHT22;66030;53.582;9.746;2024-01-25T02:35:14;19.30;60.60
21348;DHT22;66030;53.582;9.746;2024-01-25T02:37:42;19.30;60.50
21348;DHT22;66030;53.582;9.746;2024-01-25T02:40:12;19.30;60.60
21348;DHT22;66030;53.582;9.746;2024-01-25T02:42:40;19.30;60.90
21348;DHT22;66030;53.582;9.746;2024-01-25T02:45:09;19.30;61.00
21348;DHT22;66030;53.582;9.746;2024-01-25T02:47:37;19.30;60.90
21348;DHT22;66030;53.582;9.746;2024-01-25T02:50:06;19.20;60.80
21348;DHT22;66030;53.582;9.746;2024-01-25T02:52:34;19.20;61.00
21348;DHT22;66030;53.582;9.746;2024-01-25T02:55:02;19.20;61.00
21348;DHT22;66030;53.582;9.746;2024-01-25T02:57:32;19.20;61.00
21348;DHT22;66030;53.582;9.746;2024-01-25T03:00:00;19.20;60.60
21348;DHT22;66030;53.582;9.746;2024-01-25T03:02:28;19.10;60.90
21348;DHT22;66030;53.582;9.746;2024-01-25T03:04:56;19.20;61.10
21348;DHT22;66030;53.582;9.746;2024-01-25T03:07:24;19.10;60.70
21348;DHT22;66030;53.582;9.746;2024-01-25T03:09:52;19.10;59.90
21348;DHT22;66030;53.582;9.746;2024-01-25T03:12:20;19.10;60.50
21348;DHT22;66030;53.582;9.746;2024-01-25T03:14:49;19.10;59.70
21348;DHT22;66030;53.582;9.746;2024-01-25T03:17:18;19.10;60.10
21348;DHT22;66030;53.582;9.746;2024-01-25T03:19:46;19.10;59.70
21348;DHT22;66030;53.582;9.746;2024-01-25T03:22:14;19.10;59.70
21348;DHT22;66030;53.582;9.746;2024-01-25T03:24:43;19.10;60.00
21348;DHT22;66030;53.582;9.746;2024-01-25T03:27:10;19.10;59.90
21348;DHT22;66030;53.582;9.746;2024-01-25T03:29:41;19.10;60.20
21348;DHT22;66030;53.582;9.746;2024-01-25T03:32:11;19.10;60.50
21348;DHT22;66030;53.582;9.746;2024-01-25T03:34:39;19.10;60.20
21348;DHT22;66030;53.582;9.746;2024-01-25T03:37:07;19.10;61.00
21348;DHT22;66030;53.582;9.746;2024-01-25T03:39:35;19.10;60.60
21348;DHT22;66030;53.582;9.746;2024-01-25T03:42:03;19.10;60.70
21348;DHT22;66030;53.582;9.746;2024-01-25T03:44:31;19.10;61.00
21348;DHT22;66030;53.582;9.746;2024-01-25T03:46:59;19.00;60.90
21348;DHT22;66030;53.582;9.746;2024-01-25T03:49:28;19.00;60.90
21348;DHT22;66030;53.582;9.746;2024-01-25T03:51:56;19.00;60.80
21348;DHT22;66030;53.582;9.746;2024-01-25T03:54:25;19.00;60.60
21348;DHT22;66030;53.582;9.746;2024-01-25T03:56:52;19.00;60.90
21348;DHT22;66030;53.582;9.746;2024-01-25T03:59:20;19.00;60.60
21348;DHT22;66030;53.582;9.746;2024-01-25T04:01:48;19.00;60.70
21348;DHT22;66030;53.582;9.746;2024-01-25T04:04:17;19.00;60.00
21348;DHT22;66030;53.582;9.746;2024-01-25T04:06:46;19.00;60.40
21348;DHT22;66030;53.582;9.746;2024-01-25T04:09:15;19.00;60.20
21348;DHT22;66030;53.582;9.746;2024-01-25T04:11:43;19.00;60.40
21348;DHT22;66030;53.582;9.746;2024-01-25T04:14:11;19.00;60.60
21348;DHT22;66030;53.582;9.746;2024-01-25T04:16:39;19.00;60.60
21348;DHT22;66030;53.582;9.746;2024-01-25T04:19:07;18.90;60.20
21348;DHT22;66030;53.582;9.746;2024-01-25T04:21:39;18.90;60.80
21348;DHT22;66030;53.582;9.746;2024-01-25T04:24:08;18.90;61.20
21348;DHT22;66030;53.582;9.746;2024-01-25T04:26:36;18.90;60.80
21348;DHT22;66030;53.582;9.746;2024-01-25T04:29:04;18.90;60.70
21348;DHT22;66030;53.582;9.746;2024-01-25T04:31:32;18.90;60.70
21348;DHT22;66030;53.582;9.746;2024-01-25T04:34:01;18.90;60.90
21348;DHT22;66030;53.582;9.746;2024-01-25T04:36:29;18.90;60.80
21348;DHT22;66030;53.582;9.746;2024-01-25T04:38:57;18.80;60.30
21348;DHT22;66030;53.582;9.746;2024-01-25T04:41:26;18.80;60.90
21348;DHT22;66030;53.582;9.746;2024-01-25T04:43:54;18.80;60.80
21348;DHT22;66030;53.582;9.746;2024-01-25T04:46:22;18.80;60.60
21348;DHT22;66030;53.582;9.746;2024-01-25T04:48:50;18.80;59.90
21348;DHT22;66030;53.582;9.746;2024-01-25T04:51:18;18.90;59.80
21348;DHT22;66030;53.582;9.746;2024-01-25T04:53:46;19.00;59.40
21348;DHT22;66030;53.582;9.746;2024-01-25T04:56:14;19.10;59.30
21348;DHT22;66030;53.582;9.746;2024-01-25T04:58:44;19.30;59.10
21348;DHT22;66030;53.582;9.746;2024-01-25T05:01:12;19.30;58.70
21348;DHT22;66030;53.582;9.746;2024-01-25T05:03:40;19.40;58.50
21348;DHT22;66030;53.582;9.746;2024-01-25T05:06:08;19.50;58.20
21348;DHT22;66030;53.582;9.746;2024-01-25T05:08:36;19.60;58.10
21348;DHT22;66030;53.582;9.746;2024-01-25T05:11:04;19.70;57.90
21348;DHT22;66030;53.582;9.746;2024-01-25T05:13:33;19.70;57.80
21348;DHT22;66030;53.582;9.746;2024-01-25T05:16:03;19.80;57.60
21348;DHT22;66030;53.582;9.746;2024-01-25T05:18:31;19.80;57.50
21348;DHT22;66030;53.582;9.746;2024-01-25T05:21:00;19.90;57.40
21348;DHT22;66030;53.582;9.746;2024-01-25T05:23:28;19.90;57.30
21348;DHT22;66030;53.582;9.746;2024-01-25T05:25:56;20.00;57.20
21348;DHT22;66030;53.582;9.746;2024-01-25T05:28:23;20.00;57.10
21348;DHT22;66030;53.582;9.746;2024-01-25T05:30:52;20.00;57.10
21348;DHT22;66030;53.582;9.746;2024-01-25T05:33:21;20.10;57.10
21348;DHT22;66030;53.582;9.746;2024-01-25T05:35:49;20.10;57.00
21348;DHT22;66030;53.582;9.746;2024-01-25T05:38:17;20.10;56.90
21348;DHT22;66030;53.582;9.746;2024-01-25T05:40:45;20.10;56.90
21348;DHT22;66030;53.582;9.746;2024-01-25T05:43:12;20.20;56.80
21348;DHT22;66030;53.582;9.746;2024-01-25T05:45:40;20.20;56.80
21348;DHT22;66030;53.582;9.746;2024-01-25T05:48:08;20.20;56.80
21348;DHT22;66030;53.582;9.746;2024-01-25T05:50:38;20.20;56.70
21348;DHT22;66030;53.582;9.746;2024-01-25T05:53:06;20.20;57.00
21348;DHT22;66030;53.582;9.746;2024-01-25T05:55:34;20.20;57.10
21348;DHT22;66030;53.582;9.746;2024-01-25T05:58:02;20.20;57.20
21348;DHT22;66030;53.582;9.746;2024-01-25T06:00:30;20.20;57.00
21348;DHT22;66030;53.582;9.746;2024-01-25T06:02:58;20.20;57.10
21348;DHT22;66030;53.582;9.746;2024-01-25T06:05:26;20.10;57.30
21348;DHT22;66030;53.582;9.746;2024-01-25T06:07:55;20.10;57.30
21348;DHT22;66030;53.582;9.746;2024-01-25T06:10:24;20.10;57.40
21348;DHT22;66030;53.582;9.746;2024-01-25T06:12:52;20.10;57.80
21348;DHT22;66030;53.582;9.746;2024-01-25T06:15:20;20.10;57.60
21348;DHT22;66030;53.582;9.746;2024-01-25T06:17:47;20.10;58.00
21348;DHT22;66030;53.582;9.746;2024-01-25T06:20:15;20.10;58.30
21348;DHT22;66030;53.582;9.746;2024-01-25T06:22:44;20.10;57.50
21348;DHT22;66030;53.582;9.746;2024-01-25T06:25:13;20.10;57.30
21348;DHT22;66030;53.582;9.746;2024-01-25T06:27:41;20.10;57.50
21348;DHT22;66030;53.582;9.746;2024-01-25T06:30:10;20.20;57.90
21348;DHT22;66030;53.582;9.746;2024-01-25T06:32:38;20.30;58.90
21348;DHT22;66030;53.582;9.746;2024-01-25T06:35:07;20.40;58.40
21348;DHT22;66030;53.582;9.746;2024-01-25T06:37:36;20.40;59.00
21348;DHT22;66030;53.582;9.746;2024-01-25T06:40:05;20.40;58.70
21348;DHT22;66030;53.582;9.746;2024-01-25T06:42:37;20.30;58.90
21348;DHT22;66030;53.582;9.746;2024-01-25T06:45:05;20.10;57.90
21348;DHT22;66030;53.582;9.746;2024-01-25T06:47:33;19.80;57.50
21348;DHT22;66030;53.582;9.746;2024-01-25T06:50:01;19.80;59.00
21348;DHT22;66030;53.582;9.746;2024-01-25T06:52:30;19.80;58.70
21348;DHT22;66030;53.582;9.746;2024-01-25T06:54:58;19.90;58.20
21348;DHT22;66030;53.582;9.746;2024-01-25T06:57:26;19.90;58.60
21348;DHT22;66030;53.582;9.746;2024-01-25T06:59:55;19.90;58.00
21348;DHT22;66030;53.582;9.746;2024-01-25T07:02:23;19.90;58.50
21348;DHT22;66030;53.582;9.746;2024-01-25T07:04:52;19.90;58.20
21348;DHT22;66030;53.582;9.746;2024-01-25T07:07:21;19.90;57.50
21348;DHT22;66030;53.582;9.746;2024-01-25T07:09:49;20.00;57.80
21348;DHT22;66030;53.582;9.746;2024-01-25T07:12:17;20.00;57.40
21348;DHT22;66030;53.582;9.746;2024-01-25T07:14:45;20.00;57.70
21348;DHT22;66030;53.582;9.746;2024-01-25T07:17:14;20.00;57.70
21348;DHT22;66030;53.582;9.746;2024-01-25T07:19:42;20.00;57.60
21348;DHT22;66030;53.582;9.746;2024-01-25T07:22:10;20.00;57.50
21348;DHT22;66030;53.582;9.746;2024-01-25T07:24:41;20.00;57.80
21348;DHT22;66030;53.582;9.746;2024-01-25T07:27:08;20.10;57.70
21348;DHT22;66030;53.582;9.746;2024-01-25T07:29:37;20.10;57.90
21348;DHT22;66030;53.582;9.746;2024-01-25T07:32:06;20.10;58.50
21348;DHT22;66030;53.582;9.746;2024-01-25T07:34:35;20.00;58.70
21348;DHT22;66030;53.582;9.746;2024-01-25T07:37:04;20.10;58.60
21348;DHT22;66030;53.582;9.746;2024-01-25T07:39:32;20.00;58.60
21348;DHT22;66030;53.582;9.746;2024-01-25T07:42:00;20.00;57.60
21348;DHT22;66030;53.582;9.746;2024-01-25T07:44:27;20.00;57.90
21348;DHT22;66030;53.582;9.746;2024-01-25T07:46:55;20.10;58.30
21348;DHT22;66030;53.582;9.746;2024-01-25T07:49:23;20.10;59.10
21348;DHT22;66030;53.582;9.746;2024-01-25T07:51:52;20.00;59.00
21348;DHT22;66030;53.582;9.746;2024-01-25T07:54:22;20.10;58.90
21348;DHT22;66030;53.582;9.746;2024-01-25T07:56:50;20.00;58.80
21348;DHT22;66030;53.582;9.746;2024-01-25T07:59:18;20.00;58.80
21348;DHT22;66030;53.582;9.746;2024-01-25T08:01:46;20.00;58.90
21348;DHT22;66030;53.582;9.746;2024-01-25T08:04:14;20.00;58.00
21348;DHT22;66030;53.582;9.746;2024-01-25T08:06:42;20.00;57.90
21348;DHT22;66030;53.582;9.746;2024-01-25T08:09:11;20.00;58.60
21348;DHT22;66030;53.582;9.746;2024-01-25T08:11:39;20.10;58.60
21348;DHT22;66030;53.582;9.746;2024-01-25T08:14:07;20.10;58.40
21348;DHT22;66030;53.582;9.746;2024-01-25T08:16:35;20.10;58.60
21348;DHT22;66030;53.582;9.746;2024-01-25T08:19:03;20.10;58.90
21348;DHT22;66030;53.582;9.746;2024-01-25T08:21:32;20.10;59.30
21348;DHT22;66030;53.582;9.746;2024-01-25T08:24:03;20.10;59.50
21348;DHT22;66030;53.582;9.746;2024-01-25T08:26:32;20.10;59.20
21348;DHT22;66030;53.582;9.746;2024-01-25T08:29:00;20.10;59.20
21348;DHT22;66030;53.582;9.746;2024-01-25T08:31:28;20.10;59.00
21348;DHT22;66030;53.582;9.746;2024-01-25T08:33:57;20.10;58.80
21348;DHT22;66030;53.582;9.746;2024-01-25T08:36:25;20.10;59.20
21348;DHT22;66030;53.582;9.746;2024-01-25T08:38:53;20.10;59.20
21348;DHT22;66030;53.582;9.746;2024-01-25T08:41:20;20.10;58.80
21348;DHT22;66030;53.582;9.746;2024-01-25T08:43:50;20.10;58.90
21348;DHT22;66030;53.582;9.746;2024-01-25T08:46:18;20.10;59.10
21348;DHT22;66030;53.582;9.746;2024-01-25T08:48:46;20.10;58.70
21348;DHT22;66030;53.582;9.746;2024-01-25T08:51:14;20.10;58.90
21348;DHT22;66030;53.582;9.746;2024-01-25T08:53:42;20.00;58.70
21348;DHT22;66030;53.582;9.746;2024-01-25T08:56:09;20.10;58.70
21348;DHT22;66030;53.582;9.746;2024-01-25T08:58:37;20.10;58.50
21348;DHT22;66030;53.582;9.746;2024-01-25T09:01:07;20.10;58.70
21348;DHT22;66030;53.582;9.746;2024-01-25T09:03:35;20.10;59.00
21348;DHT22;66030;53.582;9.746;2024-01-25T09:06:03;20.10;58.60
21348;DHT22;66030;53.582;9.746;2024-01-25T09:08:33;20.10;58.70
21348;DHT22;66030;53.582;9.746;2024-01-25T09:11:01;20.10;58.70
21348;DHT22;66030;53.582;9.746;2024-01-25T09:13:29;20.20;58.50
21348;DHT22;66030;53.582;9.746;2024-01-25T09:15:59;20.20;58.40
21348;DHT22;66030;53.582;9.746;2024-01-25T09:18:28;20.20;58.60
21348;DHT22;66030;53.582;9.746;2024-01-25T09:20:56;20.10;58.50
21348;DHT22;66030;53.582;9.746;2024-01-25T09:23:24;20.20;58.50
21348;DHT22;66030;53.582;9.746;2024-01-25T09:25:52;20.10;58.50
21348;DHT22;66030;53.582;9.746;2024-01-25T09:28:20;20.10;58.20
21348;DHT22;66030;53.582;9.746;2024-01-25T09:30:48;20.10;58.10
21348;DHT22;66030;53.582;9.746;2024-01-25T09:33:18;20.10;58.60
21348;DHT22;66030;53.582;9.746;2024-01-25T09:35:47;20.10;58.60
21348;DHT22;66030;53.582;9.746;2024-01-25T09:38:16;20.10;58.50
21348;DHT22;66030;53.582;9.746;2024-01-25T09:40:44;20.10;58.60
21348;DHT22;66030;53.582;9.746;2024-01-25T09:43:13;20.10;58.50
21348;DHT22;66030;53.582;9.746;2024-01-25T09:45:41;20.10;58.60
21348;DHT22;66030;53.582;9.746;2024-01-25T09:48:10;20.10;58.40
21348;DHT22;66030;53.582;9.746;2024-01-25T09:50:39;20.10;58.30
21348;DHT22;66030;53.582;9.746;2024-01-25T09:53:10;20.10;58.40
21348;DHT22;66030;53.582;9.746;2024-01-25T09:55:41;20.10;58.20
21348;DHT22;66030;53.582;9.746;2024-01-25T09:58:11;20.10;58.40
21348;DHT22;66030;53.582;9.746;2024-01-25T10:00:39;20.10;58.40
21348;DHT22;66030;53.582;9.746;2024-01-25T10:03:09;20.10;58.40
21348;DHT22;66030;53.582;9.746;2024-01-25T10:05:37;20.10;58.50
21348;DHT22;66030;53.582;9.746;2024-01-25T10:08:13;20.10;58.30
21348;DHT22;66030;53.582;9.746;2024-01-25T10:10:42;20.10;58.60
21348;DHT22;66030;53.582;9.746;2024-01-25T10:13:12;20.10;58.50
21348;DHT22;66030;53.582;9.746;2024-01-25T10:15:40;20.10;58.50
21348;DHT22;66030;53.582;9.746;2024-01-25T10:18:11;20.10;58.30
21348;DHT22;66030;53.582;9.746;2024-01-25T10:20:55;20.10;58.30
21348;DHT22;66030;53.582;9.746;2024-01-25T10:23:25;20.10;58.40
21348;DHT22;66030;53.582;9.746;2024-01-25T10:25:53;20.10;58.10
21348;DHT22;66030;53.582;9.746;2024-01-25T10:28:23;20.10;58.30
21348;DHT22;66030;53.582;9.746;2024-01-25T10:30:56;20.10;57.80
21348;DHT22;66030;53.582;9.746;2024-01-25T10:33:26;20.10;57.90
21348;DHT22;66030;53.582;9.746;2024-01-25T10:35:54;20.10;57.90
21348;DHT22;66030;53.582;9.746;2024-01-25T10:38:31;20.10;57.90
21348;DHT22;66030;53.582;9.746;2024-01-25T10:41:00;20.10;57.40
21348;DHT22;66030;53.582;9.746;2024-01-25T10:43:29;20.20;57.30
21348;DHT22;66030;53.582;9.746;2024-01-25T10:45:59;20.20;57.30
21348;DHT22;66030;53.582;9.746;2024-01-25T10:48:31;20.20;57.60
21348;DHT22;66030;53.582;9.746;2024-01-25T10:50:59;20.20;58.10
21348;DHT22;66030;53.582;9.746;2024-01-25T10:53:32;20.20;58.20
21348;DHT22;66030;53.582;9.746;2024-01-25T10:56:02;20.20;58.30
21348;DHT22;66030;53.582;9.746;2024-01-25T10:58:30;20.20;58.40
21348;DHT22;66030;53.582;9.746;2024-01-25T11:01:09;20.20;58.50
21348;DHT22;66030;53.582;9.746;2024-01-25T11:03:42;20.20;58.40
21348;DHT22;66030;53.582;9.746;2024-01-25T11:06:13;20.20;59.50
21348;DHT22;66030;53.582;9.746;2024-01-25T11:08:43;20.30;60.00
21348;DHT22;66030;53.582;9.746;2024-01-25T11:11:13;20.20;60.00
21348;DHT22;66030;53.582;9.746;2024-01-25T11:13:42;20.20;59.90
21348;DHT22;66030;53.582;9.746;2024-01-25T11:16:14;20.30;60.00
21348;DHT22;66030;53.582;9.746;2024-01-25T11:18:49;20.30;60.00
21348;DHT22;66030;53.582;9.746;2024-01-25T11:21:28;20.20;59.90
21348;DHT22;66030;53.582;9.746;2024-01-25T11:24:04;20.20;59.80
21348;DHT22;66030;53.582;9.746;2024-01-25T11:26:33;20.30;60.10
21348;DHT22;66030;53.582;9.746;2024-01-25T11:29:01;20.20;59.60
21348;DHT22;66030;53.582;9.746;2024-01-25T11:31:29;20.20;59.90
21348;DHT22;66030;53.582;9.746;2024-01-25T11:33:59;20.20;59.90
21348;DHT22;66030;53.582;9.746;2024-01-25T11:36:28;20.20;59.50
21348;DHT22;66030;53.582;9.746;2024-01-25T11:38:57;20.20;59.80
21348;DHT22;66030;53.582;9.746;2024-01-25T11:41:26;20.20;59.70
21348;DHT22;66030;53.582;9.746;2024-01-25T11:43:55;20.30;59.50
21348;DHT22;66030;53.582;9.746;2024-01-25T11:46:23;20.20;59.70
21348;DHT22;66030;53.582;9.746;2024-01-25T11:48:51;20.30;59.90
21348;DHT22;66030;53.582;9.746;2024-01-25T11:51:19;20.30;59.40
21348;DHT22;66030;53.582;9.746;2024-01-25T11:53:47;20.30;59.50
21348;DHT22;66030;53.582;9.746;2024-01-25T11:56:18;20.30;59.40
21348;DHT22;66030;53.582;9.746;2024-01-25T11:58:49;20.30;59.40
21348;DHT22;66030;53.582;9.746;2024-01-25T12:01:18;20.30;59.30
21348;DHT22;66030;53.582;9.746;2024-01-25T12:03:47;20.30;59.30
21348;DHT22;66030;53.582;9.746;2024-01-25T12:06:15;20.20;59.40
21348;DHT22;66030;53.582;9.746;2024-01-25T12:08:45;20.20;59.30
21348;DHT22;66030;53.582;9.746;2024-01-25T12:11:14;20.20;59.50
21348;DHT22;66030;53.582;9.746;2024-01-25T12:13:44;20.20;59.50
21348;DHT22;66030;53.582;9.746;2024-01-25T12:16:13;20.20;59.30
21348;DHT22;66030;53.582;9.746;2024-01-25T12:18:43;20.20;58.90
21348;DHT22;66030;53.582;9.746;2024-01-25T12:21:13;20.20;59.20
21348;DHT22;66030;53.582;9.746;2024-01-25T12:23:41;20.20;59.30
21348;DHT22;66030;53.582;9.746;2024-01-25T12:26:11;20.20;59.20
21348;DHT22;66030;53.582;9.746;2024-01-25T12:28:39;20.20;59.20
21348;DHT22;66030;53.582;9.746;2024-01-25T12:31:08;20.20;59.10
21348;DHT22;66030;53.582;9.746;2024-01-25T12:33:38;20.30;59.00
21348;DHT22;66030;53.582;9.746;2024-01-25T12:36:06;20.20;59.00
21348;DHT22;66030;53.582;9.746;2024-01-25T12:38:35;20.20;59.00
21348;DHT22;66030;53.582;9.746;2024-01-25T12:41:03;20.20;58.90
21348;DHT22;66030;53.582;9.746;2024-01-25T12:43:31;20.20;58.60
21348;DHT22;66030;53.582;9.746;2024-01-25T12:46:00;20.20;58.50
21348;DHT22;66030;53.582;9.746;2024-01-25T12:48:48;20.20;58.80
21348;DHT22;66030;53.582;9.746;2024-01-25T12:51:21;20.20;58.70
21348;DHT22;66030;53.582;9.746;2024-01-25T12:53:50;20.20;58.60
21348;DHT22;66030;53.582;9.746;2024-01-25T12:56:18;20.20;58.30
21348;DHT22;66030;53.582;9.746;2024-01-25T12:58:46;20.20;58.60
21348;DHT22;66030;53.582;9.746;2024-01-25T13:01:14;20.20;58.80
21348;DHT22;66030;53.582;9.746;2024-01-25T13:03:43;20.20;58.40
21348;DHT22;66030;53.582;9.746;2024-01-25T13:06:15;20.20;58.20
21348;DHT22;66030;53.582;9.746;2024-01-25T13:08:43;20.20;58.20
21348;DHT22;66030;53.582;9.746;2024-01-25T13:11:11;20.30;58.20
21348;DHT22;66030;53.582;9.746;2024-01-25T13:13:39;20.20;58.00
21348;DHT22;66030;53.582;9.746;2024-01-25T13:16:07;20.20;58.10
21348;DHT22;66030;53.582;9.746;2024-01-25T13:18:35;20.30;58.10
21348;DHT22;66030;53.582;9.746;2024-01-25T13:21:04;20.30;57.80
21348;DHT22;66030;53.582;9.746;2024-01-25T13:23:33;20.20;57.90
21348;DHT22;66030;53.582;9.746;2024-01-25T13:26:01;20.30;58.20
21348;DHT22;66030;53.582;9.746;2024-01-25T13:28:29;20.30;58.30
21348;DHT22;66030;53.582;9.746;2024-01-25T13:30:57;20.30;58.10
21348;DHT22;66030;53.582;9.746;2024-01-25T13:33:26;20.30;58.00
21348;DHT22;66030;53.582;9.746;2024-01-25T13:35:55;20.30;58.10
21348;DHT22;66030;53.582;9.746;2024-01-25T13:38:22;20.30;58.00
21348;DHT22;66030;53.582;9.746;2024-01-25T13:40:52;20.30;57.80
21348;DHT22;66030;53.582;9.746;2024-01-25T13:43:20;20.30;57.90
21348;DHT22;66030;53.582;9.746;2024-01-25T13:45:48;20.30;57.90
21348;DHT22;66030;53.582;9.746;2024-01-25T13:48:16;20.30;58.00
21348;DHT22;66030;53.582;9.746;2024-01-25T13:50:44;20.30;57.80
21348;DHT22;66030;53.582;9.746;2024-01-25T13:53:12;20.30;57.70
21348;DHT22;66030;53.582;9.746;2024-01-25T13:55:40;20.30;57.70
21348;DHT22;66030;53.582;9.746;2024-01-25T13:58:09;20.40;57.60
21348;DHT22;66030;53.582;9.746;2024-01-25T14:00:37;20.40;57.70
21348;DHT22;66030;53.582;9.746;2024-01-25T14:03:05;20.40;58.00
21348;DHT22;66030;53.582;9.746;2024-01-25T14:05:33;20.40;57.80
21348;DHT22;66030;53.582;9.746;2024-01-25T14:08:02;20.40;57.70
21348;DHT22;66030;53.582;9.746;2024-01-25T14:10:30;20.50;57.80
21348;DHT22;66030;53.582;9.746;2024-01-25T14:13:01;20.50;58.00
21348;DHT22;66030;53.582;9.746;2024-01-25T14:15:30;20.50;57.50
21348;DHT22;66030;53.582;9.746;2024-01-25T14:17:59;20.30;56.90
21348;DHT22;66030;53.582;9.746;2024-01-25T14:20:27;20.20;56.20
21348;DHT22;66030;53.582;9.746;2024-01-25T14:22:55;20.00;55.70
21348;DHT22;66030;53.582;9.746;2024-01-25T14:25:24;19.90;55.50
21348;DHT22;66030;53.582;9.746;2024-01-25T14:27:52;19.80;55.90
21348;DHT22;66030;53.582;9.746;2024-01-25T14:30:23;19.90;56.60
21348;DHT22;66030;53.582;9.746;2024-01-25T14:32:55;20.00;55.80
21348;DHT22;66030;53.582;9.746;2024-01-25T14:35:23;20.00;55.60
21348;DHT22;66030;53.582;9.746;2024-01-25T14:37:55;19.90;55.60
21348;DHT22;66030;53.582;9.746;2024-01-25T14:40:24;19.90;55.90
21348;DHT22;66030;53.582;9.746;2024-01-25T14:43:12;19.90;56.20
21348;DHT22;66030;53.582;9.746;2024-01-25T14:45:40;20.00;56.60
21348;DHT22;66030;53.582;9.746;2024-01-25T14:48:09;20.00;56.10
21348;DHT22;66030;53.582;9.746;2024-01-25T14:50:37;20.00;56.00
21348;DHT22;66030;53.582;9.746;2024-01-25T14:53:05;20.10;56.20
21348;DHT22;66030;53.582;9.746;2024-01-25T14:55:32;20.10;56.30
21348;DHT22;66030;53.582;9.746;2024-01-25T14:58:00;20.10;56.40
21348;DHT22;66030;53.582;9.746;2024-01-25T15:00:28;20.10;56.50
21348;DHT22;66030;53.582;9.746;2024-01-25T15:02:56;20.20;56.40
21348;DHT22;66030;53.582;9.746;2024-01-25T15:05:25;20.10;56.40
21348;DHT22;66030;53.582;9.746;2024-01-25T15:07:53;20.20;56.70
21348;DHT22;66030;53.582;9.746;2024-01-25T15:10:21;20.20;56.70
21348;DHT22;66030;53.582;9.746;2024-01-25T15:12:49;20.20;56.60
21348;DHT22;66030;53.582;9.746;2024-01-25T15:15:20;20.20;56.90
21348;DHT22;66030;53.582;9.746;2024-01-25T15:17:49;20.20;57.10
21348;DHT22;66030;53.582;9.746;2024-01-25T15:20:17;20.20;56.90
21348;DHT22;66030;53.582;9.746;2024-01-25T15:22:47;20.20;57.00
21348;DHT22;66030;53.582;9.746;2024-01-25T15:25:15;20.20;56.80
21348;DHT22;66030;53.582;9.746;2024-01-25T15:27:43;20.20;56.90
21348;DHT22;66030;53.582;9.746;2024-01-25T15:30:12;20.20;56.70
21348;DHT22;66030;53.582;9.746;2024-01-25T15:32:39;20.20;56.90
21348;DHT22;66030;53.582;9.746;2024-01-25T15:35:09;20.20;57.10
21348;DHT22;66030;53.582;9.746;2024-01-25T15:37:37;20.20;57.00
21348;DHT22;66030;53.582;9.746;2024-01-25T15:40:07;20.20;57.40